Bergman, AR

3:30 PM CDT on August 27, 2016 (GMT -0500)
Boone County | | Change Station

Elev 1365 ft 36.26 °N, 93.15 °W | Updated 37 minutes ago

Mostly Cloudy
Mostly Cloudy
77 °F
Feels Like 77 °F
N
7
Wind Variable Wind from SSE

Today
High -- | Low -- °F
--% Chance of Precip.
Yesterday
High -- | Low -- °F
Precip. -- in
Pressure 30.04 in
Visibility 10.0 miles
Clouds Few 5500 ft
Mostly Cloudy 9000 ft
Mostly Cloudy 11000 ft
Dew Point 71 °F
Humidity 82%
Rainfall 0.01 in
Snow Depth Not available.
6:40 AM 7:46 PM
Waning Crescent, 22% visible
METAR KHRO 271953Z AUTO 15006KT 10SM FEW055 BKN090 BKN110 25/22 A3008 RMK AO2 LTG DSNT E AND S SLP173 T02500217
Pressure 30.04 in
Visibility 10.0 miles
Clouds Few 5500 ft
Mostly Cloudy 9000 ft
Mostly Cloudy 11000 ft
Dew Point 71 °F
Humidity 82%
Rainfall 0.01 in
Snow Depth Not available.
6:40 AM 7:46 PM
Waning Crescent, 22% visible
METAR KHRO 271953Z AUTO 15006KT 10SM FEW055 BKN090 BKN110 25/22 A3008 RMK AO2 LTG DSNT E AND S SLP173 T02500217

10-Day Weather Forecast

Almanac

Astronomy

Aug. 27, 2016 Rise Set
Actual Time
Civil Twilight
Nautical Twilight
Astronomical Twilight
Moon
Length of Visible Light
Length of Day
Tomorrow will be .
, % of the Moon is Illuminated

Today's Extremes

State Highs State Lows

Community

WunderPhotos

Upload Photos

1,935,434 photos uploaded!

WunderBlog® & News

Nearby

Air Quality

  Air Quality AQ Index Pollutant
Not available.

Snow Depth

Station Depth Elevation

Earthquake Activity

City Distance Mag. Time & Date
Minimum magnitude displayed is 2.5.

Coastal Water Temperatures

Place Temperature

Stations

Nearby Weather Stations

Station Location Temp. Windchill Dew Point Humidity Wind Precip. Elev Updated Type
                   

Watches & Warnings

There are currently no watches in effect.